Deblois, Maine
Current Conditions -  °F | °C
As of 10:35 PM on Wednesday 22 Oct 2014 (Local Time) from KBHB Reporting Station
Overcast Overcast  
Wind Chill: 40°   Ceiling: 1200
Heat Index: 46°   Visibility: 7mi
Dew Point: 46°   Wind: 16mph
Humidity: 100%   Direction: 40°NE
Pressure: 30.07"   Gusts: 31mph
Location:  44.7916°N, 68.0073°W
Report Text: KBHB 230235Z AUTO 04014G27KT 7SM OVC012 08/08 A3007 RMK AO1
Loading
Personal Weather Stations






























Interactive Weather Map
Tropical Storm Tracking
New forecast layout! Learn more

10-Day Weather Forecast

Advertisements
Track Severe Weather on mobile